CCGS Sir Wilfrid Laurier — CGJK — position and weather

sailwx.info

Track history (hours):
 
Tides and Currents Weather Stations Pressure Air Temp Water Temp Dewpoint Dewpoint Depression Visibility Wind Speed Wind Dir Waves Ship Positions

Oceanographic research ship CCGS Sir Wilfrid Laurier (Canada)

Detailed information on ship capabilities available from ARCUS's ALIAS (Arctic Logistics Information and Support) project.

Last reported at 2014-Oct-25 15:25 UTC. Time now 2014-Oct-25 16:40 UTC.
Position N 48°25' W 123°23'.

Length 83 m; beam 16.2 m; draft 6 m.

Type: SAR. MMSI: 316052000.

Date/timePositionNaut miles runAvg speedWind from/ knotsBaromVisibWave heightAir tempDewpointWater temp
2014-Oct-25 15:25N 48°25' W 123°23'0 0.0
2014-Oct-25 14:25N 48°25' W 123°23'0 0.0
2014-Oct-25 13:31N 48°25' W 123°23'0 0.0
2014-Oct-25 12:31N 48°25' W 123°23'0 0.0
2014-Oct-25 11:31N 48°25' W 123°23'0 0.0
2014-Oct-25 10:31N 48°25' W 123°23'0 0.0
2014-Oct-25 09:31N 48°25' W 123°23'0 0.0
2014-Oct-25 08:25N 48°25' W 123°23'0 0.0
2014-Oct-25 07:31N 48°25' W 123°23'0 0.0
2014-Oct-25 06:31N 48°25' W 123°23'0 0.0
2014-Oct-25 05:31N 48°25' W 123°23'0 0.0
2014-Oct-25 04:31N 48°25' W 123°23'0 0.0
2014-Oct-25 03:31N 48°25' W 123°23'0 0.0
2014-Oct-25 02:31N 48°25' W 123°23'0 0.0
2014-Oct-25 01:31N 48°25' W 123°23'0 0.0
2014-Oct-25 00:31N 48°25' W 123°23'0 0.0
2014-Oct-24 23:31N 48°25' W 123°23'0 0.0
2014-Oct-24 22:31N 48°25' W 123°23'0 0.0
2014-Oct-24 21:25N 48°25' W 123°23'0 0.0
2014-Oct-24 20:31N 48°25' W 123°23'0 0.0
2014-Oct-24 19:31N 48°25' W 123°23'0 0.0
2014-Oct-24 18:13N 48°25' W 123°23'0 0.0
2014-Oct-24 17:25N 48°25' W 123°23'0 0.0
2014-Oct-24 16:31N 48°25' W 123°23'0 0.0
2014-Oct-24 15:31N 48°25' W 123°23'0 0.0
2014-Oct-24 14:31N 48°25' W 123°23'0 0.0
2014-Oct-24 13:31N 48°25' W 123°23'0 0.0
2014-Oct-24 12:31N 48°25' W 123°23'0 0.0
2014-Oct-24 11:31N 48°25' W 123°23'0 0.0
2014-Oct-24 10:25N 48°25' W 123°23'0 0.0
2014-Oct-24 09:19N 48°25' W 123°23'0 0.0
2014-Oct-24 08:19N 48°25' W 123°23'0 0.0
2014-Oct-24 07:31N 48°25' W 123°23'0 0.0
2014-Oct-24 06:31N 48°25' W 123°23'0 0.0
2014-Oct-24 05:25N 48°25' W 123°23'0 0.0
2014-Oct-24 04:31N 48°25' W 123°23'0 0.0
2014-Oct-24 02:31N 48°25' W 123°23'0 0.0
2014-Oct-24 01:31N 48°25' W 123°23'0 0.0
2014-Oct-24 00:31N 48°25' W 123°23'0 0.0
2014-Oct-23 23:31N 48°25' W 123°23'0 0.0
2014-Oct-23 22:13N 48°25' W 123°23'0 0.0
2014-Oct-23 21:31N 48°25' W 123°23'1 0.9
2014-Oct-23 20:33N 48°25' W 123°24'8 8.1
2014-Oct-23 19:33N 48°27' W 123°13'1211.9
2014-Oct-23 18:33N 48°38' W 123°21'6 6.2
2014-Oct-23 17:33N 48°40' W 123°30'2 2.0
2014-Oct-23 16:30N 48°39' W 123°27'0 0.0
2014-Oct-23 15:18N 48°39' W 123°27'0 0.0
2014-Oct-23 09:21N 48°39' W 123°27'0 0.0
2014-Oct-23 03:18N 48°39' W 123°27'0 0.0
2014-Oct-23 01:06N 48°39' W 123°27'0 0.0
2014-Oct-23 00:33N 48°39' W 123°27'0 0.0
2014-Oct-22 23:30N 48°39' W 123°27'0 0.0
2014-Oct-22 22:12N 48°39' W 123°27'0 0.0
2014-Oct-22 21:30N 48°39' W 123°27'0 0.0
2014-Oct-22 20:33N 48°39' W 123°27'0 0.0
2014-Oct-22 19:30N 48°39' W 123°27'0 0.0
2014-Oct-22 18:27N 48°39' W 123°27'0 0.0
2014-Oct-22 17:33N 48°39' W 123°27'0 0.0
2014-Oct-22 16:30N 48°39' W 123°27'0 0.0
2014-Oct-22 15:33N 48°39' W 123°27'2 1.8
2014-Oct-22 14:32N 48°40' W 123°30'9 9.3
2014-Oct-22 13:34N 48°44' W 123°18'1212.2
2014-Oct-22 12:33N 48°48' W 123°01'6 6.4
2014-Oct-22 11:33N 48°52' W 123°08'6 6.3
2014-Oct-22 10:33N 48°56' W 123°16'6 6.3
2014-Oct-22 09:33N 48°59' W 123°24'6 6.1
2014-Oct-22 08:33N 49°04' W 123°30'6 6.3
2014-Oct-22 07:33N 49°09' W 123°36'6 6.3
2014-Oct-22 06:32N 49°13' W 123°44'6 6.4
2014-Oct-22 05:33N 49°16' W 123°53'7 6.6
2014-Oct-22 04:33N 49°19' W 124°02'7 6.6
2014-Oct-22 03:33N 49°22' W 124°10'7 6.5
2014-Oct-22 02:33N 49°26' W 124°19'6 6.0
2014-Oct-22 01:33N 49°29' W 124°27'6 6.0
2014-Oct-22 00:33N 49°33' W 124°33'6 6.2
2014-Oct-21 23:33N 49°38' W 124°39'7 6.5
2014-Oct-21 22:32N 49°43' W 124°46'6 6.3
2014-Oct-21 21:30N 49°47' W 124°53'5 4.8
2014-Oct-21 20:33N 49°51' W 124°58'5 4.8
2014-Oct-21 19:33N 49°54' W 125°04'5 5.0
2014-Oct-21 18:32N 49°58' W 125°09'8 8.4
2014-Oct-21 17:32N 50°05' W 125°16'8 8.6
2014-Oct-21 16:33N 50°12' W 125°22'56 7.9
2014-Oct-21 09:26N 50°35' W 126°42'910.4
2014-Oct-21 08:31N 50°42' W 126°53'1010.5
2014-Oct-21 07:33N 50°45' W 127°08'1110.4
2014-Oct-21 06:32N 50°49' W 127°24'10 9.7
2014-Oct-21 05:33N 50°53' W 127°37'1110.3
2014-Oct-21 04:27N 51°03' W 127°48'1311.1
2014-Oct-21 03:17N 51°15' W 127°53'1010.8
2014-Oct-21 02:19N 51°25' W 127°51'185 9.2
2014-Oct-20 06:11N 54°06' W 130°21'710.7
2014-Oct-20 05:33N 54°09' W 130°31'10 9.9
2014-Oct-20 04:33N 54°15' W 130°45'  
2014-Oct-16 05:00N 50°06' W 137°06'   260 / 11999.2 12.0 6.914.8
Track history (hours):
 
Tides and Currents Weather Stations Pressure Air Temp Water Temp Dewpoint Dewpoint Depression Visibility Wind Speed Wind Dir Waves Ship Positions

Oceanographic research ship CCGS Sir Wilfrid Laurier (Canada)

Detailed information on ship capabilities available from ARCUS's ALIAS (Arctic Logistics Information and Support) project.

Last reported at 2014-Oct-25 15:25 UTC. Time now 2014-Oct-25 16:40 UTC.
Position N 48°25' W 123°23'.

Length 83 m; beam 16.2 m; draft 6 m.

Type: SAR. MMSI: 316052000.

Date/timePositionNaut miles runAvg speedWind from/ knotsBaromVisibWave heightAir tempDewpointWater temp
2014-Oct-25 15:25N 48°25' W 123°23'0 0.0
2014-Oct-25 14:25N 48°25' W 123°23'0 0.0
2014-Oct-25 13:31N 48°25' W 123°23'0 0.0
2014-Oct-25 12:31N 48°25' W 123°23'0 0.0
2014-Oct-25 11:31N 48°25' W 123°23'0 0.0
2014-Oct-25 10:31N 48°25' W 123°23'0 0.0
2014-Oct-25 09:31N 48°25' W 123°23'0 0.0
2014-Oct-25 08:25N 48°25' W 123°23'0 0.0
2014-Oct-25 07:31N 48°25' W 123°23'0 0.0
2014-Oct-25 06:31N 48°25' W 123°23'0 0.0
2014-Oct-25 05:31N 48°25' W 123°23'0 0.0
2014-Oct-25 04:31N 48°25' W 123°23'0 0.0
2014-Oct-25 03:31N 48°25' W 123°23'0 0.0
2014-Oct-25 02:31N 48°25' W 123°23'0 0.0
2014-Oct-25 01:31N 48°25' W 123°23'0 0.0
2014-Oct-25 00:31N 48°25' W 123°23'0 0.0
2014-Oct-24 23:31N 48°25' W 123°23'0 0.0
2014-Oct-24 22:31N 48°25' W 123°23'0 0.0
2014-Oct-24 21:25N 48°25' W 123°23'0 0.0
2014-Oct-24 20:31N 48°25' W 123°23'0 0.0
2014-Oct-24 19:31N 48°25' W 123°23'0 0.0
2014-Oct-24 18:13N 48°25' W 123°23'0 0.0
2014-Oct-24 17:25N 48°25' W 123°23'0 0.0
2014-Oct-24 16:31N 48°25' W 123°23'0 0.0
2014-Oct-24 15:31N 48°25' W 123°23'0 0.0
2014-Oct-24 14:31N 48°25' W 123°23'0 0.0
2014-Oct-24 13:31N 48°25' W 123°23'0 0.0
2014-Oct-24 12:31N 48°25' W 123°23'0 0.0
2014-Oct-24 11:31N 48°25' W 123°23'0 0.0
2014-Oct-24 10:25N 48°25' W 123°23'0 0.0
2014-Oct-24 09:19N 48°25' W 123°23'0 0.0
2014-Oct-24 08:19N 48°25' W 123°23'0 0.0
2014-Oct-24 07:31N 48°25' W 123°23'0 0.0
2014-Oct-24 06:31N 48°25' W 123°23'0 0.0
2014-Oct-24 05:25N 48°25' W 123°23'0 0.0
2014-Oct-24 04:31N 48°25' W 123°23'0 0.0
2014-Oct-24 02:31N 48°25' W 123°23'0 0.0
2014-Oct-24 01:31N 48°25' W 123°23'0 0.0
2014-Oct-24 00:31N 48°25' W 123°23'0 0.0
2014-Oct-23 23:31N 48°25' W 123°23'0 0.0
2014-Oct-23 22:13N 48°25' W 123°23'0 0.0
2014-Oct-23 21:31N 48°25' W 123°23'1 0.9
2014-Oct-23 20:33N 48°25' W 123°24'8 8.1
2014-Oct-23 19:33N 48°27' W 123°13'1211.9
2014-Oct-23 18:33N 48°38' W 123°21'6 6.2
2014-Oct-23 17:33N 48°40' W 123°30'2 2.0
2014-Oct-23 16:30N 48°39' W 123°27'0 0.0
2014-Oct-23 15:18N 48°39' W 123°27'0 0.0
2014-Oct-23 09:21N 48°39' W 123°27'0 0.0
2014-Oct-23 03:18N 48°39' W 123°27'0 0.0
2014-Oct-23 01:06N 48°39' W 123°27'0 0.0
2014-Oct-23 00:33N 48°39' W 123°27'0 0.0
2014-Oct-22 23:30N 48°39' W 123°27'0 0.0
2014-Oct-22 22:12N 48°39' W 123°27'0 0.0
2014-Oct-22 21:30N 48°39' W 123°27'0 0.0
2014-Oct-22 20:33N 48°39' W 123°27'0 0.0
2014-Oct-22 19:30N 48°39' W 123°27'0 0.0
2014-Oct-22 18:27N 48°39' W 123°27'0 0.0
2014-Oct-22 17:33N 48°39' W 123°27'0 0.0
2014-Oct-22 16:30N 48°39' W 123°27'0 0.0
2014-Oct-22 15:33N 48°39' W 123°27'2 1.8
2014-Oct-22 14:32N 48°40' W 123°30'9 9.3
2014-Oct-22 13:34N 48°44' W 123°18'1212.2
2014-Oct-22 12:33N 48°48' W 123°01'6 6.4
2014-Oct-22 11:33N 48°52' W 123°08'6 6.3
2014-Oct-22 10:33N 48°56' W 123°16'6 6.3
2014-Oct-22 09:33N 48°59' W 123°24'6 6.1
2014-Oct-22 08:33N 49°04' W 123°30'6 6.3
2014-Oct-22 07:33N 49°09' W 123°36'6 6.3
2014-Oct-22 06:32N 49°13' W 123°44'6 6.4
2014-Oct-22 05:33N 49°16' W 123°53'7 6.6
2014-Oct-22 04:33N 49°19' W 124°02'7 6.6
2014-Oct-22 03:33N 49°22' W 124°10'7 6.5
2014-Oct-22 02:33N 49°26' W 124°19'6 6.0
2014-Oct-22 01:33N 49°29' W 124°27'6 6.0
2014-Oct-22 00:33N 49°33' W 124°33'6 6.2
2014-Oct-21 23:33N 49°38' W 124°39'7 6.5
2014-Oct-21 22:32N 49°43' W 124°46'6 6.3
2014-Oct-21 21:30N 49°47' W 124°53'5 4.8
2014-Oct-21 20:33N 49°51' W 124°58'5 4.8
2014-Oct-21 19:33N 49°54' W 125°04'5 5.0
2014-Oct-21 18:32N 49°58' W 125°09'8 8.4
2014-Oct-21 17:32N 50°05' W 125°16'8 8.6
2014-Oct-21 16:33N 50°12' W 125°22'56 7.9
2014-Oct-21 09:26N 50°35' W 126°42'910.4
2014-Oct-21 08:31N 50°42' W 126°53'1010.5
2014-Oct-21 07:33N 50°45' W 127°08'1110.4
2014-Oct-21 06:32N 50°49' W 127°24'10 9.7
2014-Oct-21 05:33N 50°53' W 127°37'1110.3
2014-Oct-21 04:27N 51°03' W 127°48'1311.1
2014-Oct-21 03:17N 51°15' W 127°53'1010.8
2014-Oct-21 02:19N 51°25' W 127°51'185 9.2
2014-Oct-20 06:11N 54°06' W 130°21'710.7
2014-Oct-20 05:33N 54°09' W 130°31'10 9.9
2014-Oct-20 04:33N 54°15' W 130°45'  
2014-Oct-16 05:00N 50°06' W 137°06'   260 / 11999.2 12.0 6.914.8

Dump ship's entire track history